Time;durP1;ratioP1;P1;durP2;ratioP2;P2;SDS_P1;SDS_P2;PMS_P1;PMS_P2;Temp;Humidity;BMP_temperature;BMP_pressure;BME280_temperature;BME280_humidity;BME280_pressure;Samples;Min_cycle;Max_cycle;Signal;HPM_P1;HPM_P2
2024/01/24 00:01:09;;;;;;;7.10;4.80;;;;;;;1.19;71.17;101202.82;105669;1255;60419;-72
2024/01/24 00:03:36;;;;;;;7.10;4.90;;;;;;;1.21;71.20;101198.79;105692;1257;65104;-74
2024/01/24 00:06:03;;;;;;;7.00;4.70;;;;;;;1.22;71.19;101187.83;105708;1258;60521;-73
2024/01/24 00:08:30;;;;;;;6.90;4.60;;;;;;;1.23;71.17;101189.70;105776;1258;64016;-74
2024/01/24 00:10:57;;;;;;;7.00;5.10;;;;;;;1.22;71.20;101186.94;105780;1255;60368;-73
2024/01/24 00:13:24;;;;;;;7.00;4.90;;;;;;;1.23;71.25;101185.00;105695;1253;61079;-72
2024/01/24 00:15:51;;;;;;;5.90;5.00;;;;;;;1.23;71.31;101182.92;105662;1256;65201;-73
2024/01/24 00:18:18;;;;;;;7.40;4.60;;;;;;;1.25;71.26;101183.91;105650;1257;60560;-72
2024/01/24 00:20:45;;;;;;;7.80;5.10;;;;;;;1.25;71.24;101184.60;105528;1258;64062;-73
2024/01/24 00:23:12;;;;;;;7.20;5.30;;;;;;;1.26;71.28;101187.70;105808;1266;60421;-73
2024/01/24 00:25:39;;;;;;;8.20;5.00;;;;;;;1.27;71.21;101193.06;105734;1257;60419;-73
2024/01/24 00:28:06;;;;;;;8.30;4.80;;;;;;;1.27;71.21;101188.19;105516;1258;65125;-73
2024/01/24 00:30:33;;;;;;;10.10;7.70;;;;;;;1.29;71.22;101185.90;105714;1254;60457;-73
2024/01/24 00:33:01;;;;;;;8.40;5.90;;;;;;;1.29;71.24;101181.55;105653;1258;63970;-73
2024/01/24 00:35:28;;;;;;;11.40;7.80;;;;;;;1.30;71.19;101175.11;105630;1259;60526;-73
2024/01/24 00:37:55;;;;;;;7.00;5.20;;;;;;;1.30;71.17;101168.33;105894;1257;60453;-73
2024/01/24 00:40:22;;;;;;;12.20;8.80;;;;;;;1.31;71.23;101168.14;105784;1254;64986;-72
2024/01/24 00:42:49;;;;;;;6.80;5.10;;;;;;;1.31;71.22;101163.97;105766;1258;61017;-73
2024/01/24 00:45:16;;;;;;;8.50;5.60;;;;;;;1.31;71.18;101158.24;105722;1259;64067;-73
2024/01/24 00:47:44;;;;;;;9.60;5.50;;;;;;;1.31;71.17;101160.67;105637;1255;60447;-73
2024/01/24 00:50:11;;;;;;;8.70;5.60;;;;;;;1.31;71.25;101163.28;105441;1254;60445;-72
2024/01/24 00:52:38;;;;;;;7.60;5.60;;;;;;;1.31;71.26;101160.31;105878;1255;65014;-73
2024/01/24 00:55:06;;;;;;;8.40;5.40;;;;;;;1.32;71.26;101154.21;105420;1258;60497;-73
2024/01/24 00:57:33;;;;;;;8.30;5.30;;;;;;;1.32;71.27;101152.13;105681;1255;64137;-73
2024/01/24 01:00:00;;;;;;;8.60;5.40;;;;;;;1.33;71.26;101148.96;105741;1259;60869;-74
2024/01/24 01:02:28;;;;;;;7.90;5.40;;;;;;;1.33;71.23;101147.41;105632;1258;60566;-74
2024/01/24 01:04:55;;;;;;;8.80;5.80;;;;;;;1.33;71.28;101146.71;105674;1257;64936;-72
2024/01/24 01:07:23;;;;;;;6.00;4.70;;;;;;;1.33;71.29;101147.27;105528;1259;60879;-72
2024/01/24 01:09:50;;;;;;;7.40;5.10;;;;;;;1.32;71.21;101140.17;105645;1259;62619;-74
2024/01/24 01:12:17;;;;;;;7.10;4.90;;;;;;;1.31;71.23;101143.48;105952;1257;60335;-72
2024/01/24 01:14:46;;;;;;;8.30;5.10;;;;;;;1.30;71.29;101145.94;105726;1253;60460;-72
2024/01/24 01:17:12;;;;;;;7.00;5.00;;;;;;;1.30;71.21;101139.71;105414;1259;65193;-73
2024/01/24 01:19:39;;;;;;;8.70;5.30;;;;;;;1.30;71.24;101131.40;105712;1259;60309;-73
2024/01/24 01:22:06;;;;;;;8.80;5.50;;;;;;;1.29;71.25;101134.19;105821;1257;64012;-72
2024/01/24 01:24:33;;;;;;;9.30;5.30;;;;;;;1.29;71.24;101131.07;105635;1259;60378;-73
2024/01/24 01:27:02;;;;;;;8.90;5.60;;;;;;;1.29;71.31;101124.13;105568;1254;60519;-73
2024/01/24 01:29:29;;;;;;;7.60;5.70;;;;;;;1.29;71.31;101121.86;105662;1260;65128;-74
2024/01/24 01:31:56;;;;;;;8.70;5.80;;;;;;;1.29;71.27;101125.70;105944;1257;60550;-72
2024/01/24 01:34:23;;;;;;;8.60;5.90;;;;;;;1.29;71.27;101133.30;105603;1259;62501;-72
2024/01/24 01:36:50;;;;;;;9.20;6.20;;;;;;;1.30;71.29;101130.67;105763;1258;60419;-74
2024/01/24 01:39:16;;;;;;;9.00;6.60;;;;;;;1.30;71.29;101126.52;105871;1254;60486;-73
2024/01/24 01:41:46;;;;;;;8.70;6.70;;;;;;;1.31;71.29;101124.59;105758;1258;65329;-73
2024/01/24 01:44:15;;;;;;;9.10;6.30;;;;;;;1.31;71.34;101118.33;105565;1255;60511;-74
2024/01/24 01:46:44;;;;;;;7.90;6.30;;;;;;;1.31;71.32;101118.52;105929;1257;64003;-74
2024/01/24 01:49:12;;;;;;;10.40;6.80;;;;;;;1.30;71.36;101117.31;105874;1254;60577;-72
2024/01/24 01:51:39;;;;;;;9.80;6.00;;;;;;;1.30;71.38;101115.95;105444;1258;60375;-73
2024/01/24 01:54:09;;;;;;;10.30;6.10;;;;;;;1.31;71.39;101114.53;105292;1254;65095;-72
2024/01/24 01:56:36;;;;;;;11.10;6.20;;;;;;;1.32;71.44;101113.80;105656;1255;60472;-74
2024/01/24 01:59:05;;;;;;;10.90;6.70;;;;;;;1.33;71.39;101109.25;105417;1258;64020;-73
2024/01/24 02:01:32;;;;;;;8.90;6.10;;;;;;;1.33;71.51;101106.47;105789;1258;60353;-74
2024/01/24 02:03:59;;;;;;;8.50;6.10;;;;;;;1.33;71.39;101101.60;105646;1255;60549;-73
2024/01/24 02:06:31;;;;;;;9.40;6.40;;;;;;;1.33;71.42;101101.94;105535;1258;65269;-73
2024/01/24 02:08:58;;;;;;;9.00;6.20;;;;;;;1.34;71.43;101095.15;105675;1257;60445;-73
2024/01/24 02:11:25;;;;;;;9.00;6.30;;;;;;;1.34;71.43;101096.36;105613;1255;63829;-72
2024/01/24 02:14:01;;;;;;;8.70;6.40;;;;;;;1.35;71.44;101097.93;105677;1253;60376;-72
2024/01/24 02:16:28;;;;;;;10.40;6.90;;;;;;;1.35;71.44;101095.83;105518;1254;60477;-72
2024/01/24 02:18:55;;;;;;;9.00;6.60;;;;;;;1.36;71.44;101099.46;105451;1254;65093;-71
2024/01/24 02:21:22;;;;;;;10.50;7.40;;;;;;;1.36;71.42;101104.15;105650;1255;60469;-72
2024/01/24 02:23:49;;;;;;;9.70;7.00;;;;;;;1.35;71.46;101104.52;105475;1255;62612;-72
2024/01/24 02:26:16;;;;;;;8.80;6.60;;;;;;;1.36;71.52;101102.93;105598;1257;60381;-72
2024/01/24 02:28:43;;;;;;;10.60;7.00;;;;;;;1.36;71.47;101107.61;105330;1259;60422;-73
2024/01/24 02:31:10;;;;;;;11.70;7.40;;;;;;;1.36;71.41;101109.52;105618;1259;64950;-75
2024/01/24 02:33:37;;;;;;;8.90;6.50;;;;;;;1.37;71.49;101109.48;105773;1254;60554;-73
2024/01/24 02:36:05;;;;;;;10.90;6.50;;;;;;;1.38;71.47;101110.52;105653;1257;65907;-73
2024/01/24 02:38:32;;;;;;;9.10;6.70;;;;;;;1.39;71.44;101108.91;105732;1254;60393;-73
2024/01/24 02:40:59;;;;;;;9.40;6.50;;;;;;;1.39;71.49;101104.89;105450;1254;60544;-73
2024/01/24 02:43:26;;;;;;;9.30;7.00;;;;;;;1.39;71.48;101099.52;105775;1258;65017;-72
2024/01/24 02:45:54;;;;;;;8.20;6.60;;;;;;;1.39;71.55;101095.01;105603;1259;60457;-73
2024/01/24 02:48:21;;;;;;;10.50;7.00;;;;;;;1.39;71.52;101091.72;105728;1257;63992;-73
2024/01/24 02:50:48;;;;;;;9.50;6.80;;;;;;;1.40;71.55;101081.98;105597;1256;60426;-72
2024/01/24 02:53:15;;;;;;;9.60;7.00;;;;;;;1.41;71.58;101077.79;105464;1259;60364;-72
2024/01/24 02:55:42;;;;;;;10.30;6.50;;;;;;;1.41;71.60;101077.96;105670;1254;65289;-73
2024/01/24 02:58:09;;;;;;;9.50;6.90;;;;;;;1.41;71.61;101079.86;105553;1253;60638;-74
2024/01/24 03:00:36;;;;;;;8.60;6.50;;;;;;;1.40;71.66;101075.88;105631;1257;63989;-72
2024/01/24 03:03:04;;;;;;;8.50;6.60;;;;;;;1.40;71.63;101075.36;105703;1257;60333;-72
2024/01/24 03:05:31;;;;;;;11.00;6.80;;;;;;;1.40;71.58;101070.15;105499;1254;60549;-72
2024/01/24 03:07:58;;;;;;;10.00;7.40;;;;;;;1.40;71.69;101065.30;105559;1254;65034;-73
2024/01/24 03:10:28;;;;;;;10.30;7.10;;;;;;;1.40;71.72;101061.50;105409;1260;60509;-74
2024/01/24 03:12:54;;;;;;;9.50;7.10;;;;;;;1.40;71.64;101068.08;105683;1259;64031;-73
2024/01/24 03:15:21;;;;;;;9.20;6.90;;;;;;;1.41;71.72;101067.02;105724;1254;60381;-73
2024/01/24 03:17:48;;;;;;;11.10;7.30;;;;;;;1.41;71.77;101064.41;105721;1258;60450;-73
2024/01/24 03:20:16;;;;;;;10.00;7.00;;;;;;;1.42;71.75;101064.20;105549;1261;65003;-73
2024/01/24 03:22:44;;;;;;;8.60;6.70;;;;;;;1.42;71.77;101058.46;105527;1254;60455;-73
2024/01/24 03:25:15;;;;;;;10.70;7.40;;;;;;;1.42;71.78;101057.77;105617;1254;65775;-73
2024/01/24 03:27:42;;;;;;;9.70;7.20;;;;;;;1.41;71.83;101063.89;105660;1257;60350;-73
2024/01/24 03:30:10;;;;;;;10.60;7.20;;;;;;;1.41;71.78;101062.51;105595;1253;60320;-73
2024/01/24 03:32:37;;;;;;;9.30;7.20;;;;;;;1.41;71.81;101061.46;105557;1261;65122;-74
2024/01/24 03:35:06;;;;;;;10.10;7.10;;;;;;;1.41;71.92;101064.75;106009;1257;60463;-72
2024/01/24 03:37:34;;;;;;;9.60;7.50;;;;;;;1.40;71.89;101062.86;105615;1254;63882;-72
2024/01/24 03:40:00;;;;;;;10.00;7.40;;;;;;;1.40;71.95;101060.97;105712;1256;60812;-73
2024/01/24 03:42:28;;;;;;;11.00;7.40;;;;;;;1.40;71.98;101053.68;105529;1253;60414;-74
2024/01/24 03:44:55;;;;;;;10.10;7.20;;;;;;;1.40;72.06;101043.61;105771;1257;65266;-73
2024/01/24 03:47:21;;;;;;;9.70;7.40;;;;;;;1.40;72.09;101045.34;105773;1254;60590;-73
2024/01/24 03:49:48;;;;;;;11.70;7.90;;;;;;;1.41;72.16;101049.14;105491;1254;64119;-73
2024/01/24 03:52:15;;;;;;;9.90;7.60;;;;;;;1.42;72.05;101048.08;105663;1254;60396;-73
2024/01/24 03:54:42;;;;;;;10.80;8.10;;;;;;;1.42;72.08;101050.65;105775;1254;60420;-73
2024/01/24 03:57:09;;;;;;;11.70;7.70;;;;;;;1.43;72.08;101049.77;105599;1253;63796;-73
2024/01/24 03:59:37;;;;;;;11.00;7.80;;;;;;;1.43;72.10;101048.56;105747;1254;60851;-73
2024/01/24 04:02:04;;;;;;;11.50;8.20;;;;;;;1.43;72.17;101047.70;105569;1260;64026;-74
2024/01/24 04:04:31;;;;;;;13.30;8.20;;;;;;;1.43;72.14;101046.98;105630;1257;60402;-74
2024/01/24 04:06:58;;;;;;;12.50;8.20;;;;;;;1.43;72.15;101042.13;105908;1254;60407;-72
2024/01/24 04:09:25;;;;;;;11.40;8.40;;;;;;;1.43;72.18;101043.87;105771;1254;65140;-73
2024/01/24 04:11:52;;;;;;;12.00;8.60;;;;;;;1.42;72.20;101045.96;105596;1254;60442;-73
2024/01/24 04:14:19;;;;;;;12.00;7.90;;;;;;;1.42;72.18;101039.91;105656;1254;64016;-73
2024/01/24 04:16:46;;;;;;;12.60;8.20;;;;;;;1.43;72.18;101043.53;105462;1253;60499;-72
2024/01/24 04:19:13;;;;;;;10.80;8.40;;;;;;;1.42;72.26;101050.84;105695;1254;60419;-74
2024/01/24 04:21:42;;;;;;;11.20;8.40;;;;;;;1.42;72.27;101051.00;105905;1258;65095;-76
2024/01/24 04:24:09;;;;;;;11.70;8.30;;;;;;;1.43;72.20;101054.80;105685;1257;60532;-75
2024/01/24 04:26:37;;;;;;;11.40;8.20;;;;;;;1.45;72.28;101056.67;105797;1258;64040;-76
2024/01/24 04:29:04;;;;;;;11.80;8.00;;;;;;;1.46;72.30;101060.27;105817;1253;60429;-73
2024/01/24 04:31:31;;;;;;;11.50;8.20;;;;;;;1.46;72.33;101057.16;105949;1254;60464;-79
2024/01/24 04:33:57;;;;;;;12.70;8.30;;;;;;;1.46;72.35;101049.35;105898;1254;63837;-77
2024/01/24 04:36:24;;;;;;;11.00;8.20;;;;;;;1.47;72.34;101044.99;105861;1257;60381;-76
2024/01/24 04:38:51;;;;;;;12.20;8.70;;;;;;;1.48;72.30;101039.75;105868;1254;63704;-75
2024/01/24 04:41:17;;;;;;;10.30;8.40;;;;;;;1.48;72.38;101039.73;105773;1255;60433;-72
2024/01/24 04:43:44;;;;;;;12.80;8.40;;;;;;;1.48;72.44;101038.68;106094;1253;60429;-73
2024/01/24 04:46:14;;;;;;;12.60;8.90;;;;;;;1.49;72.41;101040.91;105931;1254;63761;-72
2024/01/24 04:48:43;;;;;;;13.70;8.70;;;;;;;1.49;72.48;101045.42;105677;1253;60467;-72
2024/01/24 04:51:13;;;;;;;12.40;8.80;;;;;;;1.48;72.54;101044.09;105751;1254;64006;-75
2024/01/24 04:53:40;;;;;;;12.50;8.80;;;;;;;1.48;72.55;101044.60;105482;1261;60566;-74
2024/01/24 04:56:07;;;;;;;12.60;8.60;;;;;;;1.49;72.60;101047.68;105623;1253;60541;-76
2024/01/24 04:58:34;;;;;;;12.80;8.90;;;;;;;1.49;72.66;101038.14;105811;1257;64891;-77
2024/01/24 05:01:02;;;;;;;12.10;8.50;;;;;;;1.50;72.63;101039.31;105870;1253;60547;-75
2024/01/24 05:03:29;;;;;;;12.20;9.00;;;;;;;1.51;72.69;101045.89;105935;1254;64004;-73
2024/01/24 05:05:55;;;;;;;12.40;9.00;;;;;;;1.52;72.70;101050.70;105804;1254;60310;-74
2024/01/24 05:08:33;;;;;;;12.10;8.10;;;;;;;1.54;72.72;101049.62;105650;1254;60348;-75
2024/01/24 05:11:00;;;;;;;12.10;8.50;;;;;;;1.55;72.67;101047.14;105997;1253;63774;-74
2024/01/24 05:13:27;;;;;;;10.60;8.50;;;;;;;1.57;72.73;101046.23;106003;1254;60447;-73
2024/01/24 05:15:54;;;;;;;13.50;9.00;;;;;;;1.57;72.72;101044.83;105901;1254;63753;-75
2024/01/24 05:18:21;;;;;;;12.10;8.20;;;;;;;1.57;72.76;101047.96;106121;1254;60427;-73
2024/01/24 05:20:48;;;;;;;12.00;8.60;;;;;;;1.57;72.77;101047.61;105947;1253;60431;-76
2024/01/24 05:23:15;;;;;;;10.30;7.80;;;;;;;1.58;72.75;101049.14;105882;1252;64871;-74
2024/01/24 05:25:42;;;;;;;11.00;7.70;;;;;;;1.59;72.78;101049.11;105906;1253;60445;-77
2024/01/24 05:28:10;;;;;;;10.10;7.70;;;;;;;1.58;72.84;101047.23;105808;1257;64525;-72
2024/01/24 05:30:37;;;;;;;11.00;7.80;;;;;;;1.58;72.81;101051.91;105908;1258;60319;-73
2024/01/24 05:33:05;;;;;;;12.70;9.00;;;;;;;1.59;72.87;101052.93;105575;1257;60475;-75
2024/01/24 05:35:32;;;;;;;11.50;8.20;;;;;;;1.58;72.83;101052.77;105566;1257;65186;-73
2024/01/24 05:38:00;;;;;;;12.00;7.90;;;;;;;1.59;72.85;101057.77;105762;1254;60569;-74
2024/01/24 05:40:27;;;;;;;12.60;7.90;;;;;;;1.60;72.90;101056.52;105472;1254;64147;-72
2024/01/24 05:42:53;;;;;;;10.50;7.90;;;;;;;1.60;72.94;101053.40;105647;1253;60523;-72
2024/01/24 05:45:22;;;;;;;11.30;8.20;;;;;;;1.61;72.95;101050.77;105816;1253;61003;-72
2024/01/24 05:47:49;;;;;;;9.90;7.80;;;;;;;1.61;73.00;101054.57;105743;1257;65207;-73
2024/01/24 05:50:16;;;;;;;11.00;8.40;;;;;;;1.62;72.96;101059.23;105760;1258;60557;-75
2024/01/24 05:52:43;;;;;;;10.90;8.10;;;;;;;1.61;73.01;101057.71;105760;1253;63705;-72
2024/01/24 05:55:11;;;;;;;10.80;7.50;;;;;;;1.61;73.03;101054.42;105745;1253;60551;-72
2024/01/24 05:57:41;;;;;;;10.90;8.40;;;;;;;1.61;73.02;101047.80;105755;1258;60492;-73
2024/01/24 06:00:14;;;;;;;12.50;8.30;;;;;;;1.62;73.04;101046.23;105395;1254;65478;-72
2024/01/24 06:02:43;;;;;;;11.00;7.90;;;;;;;1.61;73.03;101042.25;105741;1253;60346;-73
2024/01/24 06:05:10;;;;;;;11.50;8.70;;;;;;;1.61;73.04;101037.39;105786;1254;64076;-73
2024/01/24 06:07:38;;;;;;;10.40;7.80;;;;;;;1.62;73.07;101033.02;105696;1253;60490;-74
2024/01/24 06:10:06;;;;;;;11.00;8.70;;;;;;;1.63;73.09;101039.42;105569;1253;60541;-74
2024/01/24 06:12:33;;;;;;;12.30;8.10;;;;;;;1.63;73.08;101032.63;105782;1257;65199;-76
2024/01/24 06:15:01;;;;;;;12.90;8.30;;;;;;;1.63;73.13;101034.02;105831;1253;60445;-75
2024/01/24 06:17:29;;;;;;;12.40;8.50;;;;;;;1.63;73.18;101030.76;105677;1254;63823;-75
2024/01/24 06:19:56;;;;;;;11.70;8.70;;;;;;;1.63;73.23;101022.23;105723;1254;60572;-78
2024/01/24 06:22:23;;;;;;;12.30;8.60;;;;;;;1.62;73.17;101019.66;105804;1253;60490;-73
2024/01/24 06:24:50;;;;;;;11.60;8.80;;;;;;;1.63;73.27;101023.81;105877;1253;65026;-72
2024/01/24 06:27:17;;;;;;;12.70;8.90;;;;;;;1.62;73.32;101021.92;105726;1254;60439;-75
2024/01/24 06:29:45;;;;;;;11.70;8.50;;;;;;;1.61;73.35;101028.71;105771;1258;64050;-74
2024/01/24 06:32:32;;;;;;;12.80;9.20;;;;;;;1.61;73.44;101034.13;105752;1253;60472;-75
2024/01/24 06:34:59;;;;;;;12.70;8.10;;;;;;;1.61;73.47;101030.46;105805;1257;60334;-72
2024/01/24 06:37:26;;;;;;;13.00;8.90;;;;;;;1.62;73.53;101025.92;105400;1260;65070;-75
2024/01/24 06:39:53;;;;;;;11.10;8.50;;;;;;;1.62;73.50;101028.52;105697;1253;183054;-74
2024/01/24 06:42:20;;;;;;;12.50;8.80;;;;;;;1.63;73.52;101033.52;105911;1253;63991;-73
2024/01/24 06:44:47;;;;;;;10.50;8.60;;;;;;;1.65;73.60;101025.33;105975;1253;60540;-75
2024/01/24 06:47:14;;;;;;;11.30;8.70;;;;;;;1.66;73.61;101020.42;105829;1253;60484;-75
2024/01/24 06:49:41;;;;;;;11.60;8.80;;;;;;;1.67;73.61;101024.18;105700;1258;65271;-75
2024/01/24 06:52:09;;;;;;;12.50;8.70;;;;;;;1.67;73.66;101018.44;105850;1253;60503;-76
2024/01/24 06:54:36;;;;;;;11.90;9.50;;;;;;;1.68;73.67;101014.27;105563;1254;64186;-76
2024/01/24 06:57:06;;;;;;;10.90;8.40;;;;;;;1.69;73.65;101016.48;105802;1257;60511;-79
2024/01/24 06:59:33;;;;;;;15.40;9.40;;;;;;;1.71;73.71;101014.52;106107;1253;60450;-80
2024/01/24 07:02:01;;;;;;;11.70;8.90;;;;;;;1.71;73.73;101012.77;105859;1257;65316;-75
2024/01/24 07:04:28;;;;;;;11.10;8.70;;;;;;;1.72;73.71;101004.40;105823;1253;60454;-77
2024/01/24 07:06:55;;;;;;;11.50;8.80;;;;;;;1.73;73.69;101003.50;105885;1254;64665;-76
2024/01/24 07:09:22;;;;;;;13.20;9.10;;;;;;;1.73;73.70;101009.40;105732;1253;60417;-74
2024/01/24 07:11:50;;;;;;;12.70;9.20;;;;;;;1.74;73.76;101003.14;105766;1261;60401;-75
2024/01/24 07:14:17;;;;;;;12.90;9.60;;;;;;;1.76;73.81;100998.21;105548;1253;65090;-74
2024/01/24 07:16:44;;;;;;;12.20;9.20;;;;;;;1.77;73.79;100996.10;105634;1253;60878;-73
2024/01/24 07:19:11;;;;;;;12.30;9.30;;;;;;;1.77;73.79;100992.81;105683;1253;64057;-74
2024/01/24 07:21:39;;;;;;;13.40;9.30;;;;;;;1.77;73.78;100995.92;105773;1254;60360;-73
2024/01/24 07:24:07;;;;;;;14.90;10.20;;;;;;;1.78;73.82;100997.27;105656;1253;60549;-73
2024/01/24 07:26:35;;;;;;;12.10;9.70;;;;;;;1.80;73.83;101000.33;105605;1257;65042;-74
2024/01/24 07:29:04;;;;;;;12.20;9.50;;;;;;;1.82;73.86;100993.66;105612;1253;60540;-75
2024/01/24 07:31:32;;;;;;;15.70;11.30;;;;;;;1.84;73.84;100995.36;105691;1252;63894;-75
2024/01/24 07:33:59;;;;;;;15.00;11.20;;;;;;;1.84;73.80;101000.73;105746;1253;60652;-74
2024/01/24 07:36:27;;;;;;;14.40;10.70;;;;;;;1.86;73.82;100999.27;105659;1253;60447;-75
2024/01/24 07:38:55;;;;;;;13.60;10.70;;;;;;;1.88;73.72;100999.52;105803;1253;65197;-73
2024/01/24 07:41:23;;;;;;;14.50;11.50;;;;;;;1.90;73.79;101001.05;105720;1253;60458;-78
2024/01/24 07:43:51;;;;;;;13.70;10.30;;;;;;;1.93;73.72;101005.64;105735;1257;63912;-75
2024/01/24 07:46:18;;;;;;;14.20;10.20;;;;;;;1.95;73.68;101005.73;105910;1253;60364;-73
2024/01/24 07:48:45;;;;;;;15.90;10.80;;;;;;;1.97;73.65;101009.31;105839;1258;60542;-75
2024/01/24 07:51:14;;;;;;;12.50;9.60;;;;;;;1.98;73.63;101011.34;105815;1253;65171;-74
2024/01/24 07:53:43;;;;;;;15.00;11.10;;;;;;;2.00;73.51;101008.67;105577;1255;60388;-75
2024/01/24 07:56:11;;;;;;;15.00;11.60;;;;;;;2.00;73.54;101004.49;106106;1253;63986;-74
2024/01/24 07:58:51;;;;;;;15.00;11.90;;;;;;;2.02;73.48;101000.29;105822;1256;60368;-74
2024/01/24 08:01:18;;;;;;;17.10;12.30;;;;;;;2.05;73.51;100995.66;105790;1257;60443;-72
2024/01/24 08:03:48;;;;;;;15.60;11.50;;;;;;;2.08;73.50;100993.48;105894;1254;65252;-74
2024/01/24 08:06:17;;;;;;;17.20;13.10;;;;;;;2.11;73.38;100990.41;105645;1253;60444;-74
2024/01/24 08:08:45;;;;;;;17.60;12.60;;;;;;;2.13;73.34;100990.70;105538;1253;64140;-74
2024/01/24 08:11:12;;;;;;;16.80;12.20;;;;;;;2.14;73.28;100984.60;106643;1254;60492;-76
2024/01/24 08:13:40;;;;;;;15.10;11.30;;;;;;;2.17;73.31;100981.36;105556;1261;60400;-73
2024/01/24 08:16:07;;;;;;;16.70;11.90;;;;;;;2.19;73.24;100983.70;105535;1258;66941;-74
2024/01/24 08:18:35;;;;;;;15.80;12.50;;;;;;;2.22;73.19;100978.39;105270;1253;60484;-74
2024/01/24 08:21:02;;;;;;;15.30;11.60;;;;;;;2.26;73.21;100976.34;105877;1258;64101;-75
2024/01/24 08:23:33;;;;;;;18.80;12.60;;;;;;;2.31;73.11;100980.34;105856;1253;60425;-75
2024/01/24 08:26:13;;;;;;;18.10;12.20;;;;;;;2.35;73.01;100980.21;105806;1253;60455;-75
2024/01/24 08:28:42;;;;;;;15.00;12.00;;;;;;;2.38;73.05;100977.65;105765;1257;65149;-75
2024/01/24 08:31:10;;;;;;;16.70;12.60;;;;;;;2.41;72.96;100977.55;105948;1254;60482;-75
2024/01/24 08:33:37;;;;;;;19.10;14.20;;;;;;;2.44;72.85;100973.46;105999;1254;63856;-73
2024/01/24 08:36:05;;;;;;;17.30;13.70;;;;;;;2.46;72.79;100970.05;105956;1253;60636;-73
2024/01/24 08:38:33;;;;;;;17.80;13.90;;;;;;;2.50;72.74;100969.22;105759;1253;60477;-74
2024/01/24 08:41:00;;;;;;;18.40;14.40;;;;;;;2.53;72.64;100954.52;105612;1253;66829;-74
2024/01/24 08:43:27;;;;;;;19.60;14.20;;;;;;;2.56;72.67;100939.80;105822;1253;60876;-76
2024/01/24 08:45:54;;;;;;;17.50;13.70;;;;;;;2.60;72.57;100935.45;105759;1253;62626;-74
2024/01/24 08:48:21;;;;;;;17.90;13.80;;;;;;;2.65;72.55;100927.27;105727;1254;60486;-73
2024/01/24 08:50:48;;;;;;;17.30;12.80;;;;;;;2.71;72.43;100923.95;105845;1253;60492;-72
2024/01/24 08:53:15;;;;;;;18.40;13.30;;;;;;;2.73;72.22;100919.52;105808;1253;66826;-74
2024/01/24 08:55:43;;;;;;;17.60;12.60;;;;;;;2.73;72.05;100912.02;105810;1254;60434;-73
2024/01/24 08:58:11;;;;;;;17.30;12.90;;;;;;;2.75;71.92;100907.60;105684;1253;65574;-73
2024/01/24 09:00:39;;;;;;;17.70;12.80;;;;;;;2.76;71.86;100901.45;105799;1253;60445;-75
2024/01/24 09:03:06;;;;;;;17.10;13.10;;;;;;;2.77;71.76;100896.21;105701;1254;60431;-74
2024/01/24 09:05:34;;;;;;;16.40;12.60;;;;;;;2.79;71.75;100891.09;105998;1253;64914;-76
2024/01/24 09:08:02;;;;;;;15.80;12.50;;;;;;;2.82;71.59;100888.54;105788;1258;60536;-74
2024/01/24 09:10:29;;;;;;;16.40;12.90;;;;;;;2.83;71.52;100887.64;105790;1254;65707;-76
2024/01/24 09:12:57;;;;;;;17.40;12.30;;;;;;;2.83;71.34;100886.40;105753;1257;60442;-73
2024/01/24 09:15:24;;;;;;;18.40;13.60;;;;;;;2.84;71.23;100884.11;105778;1258;60300;-73
2024/01/24 09:17:52;;;;;;;18.70;13.70;;;;;;;2.87;71.26;100881.38;107465;1253;65338;-74
2024/01/24 09:20:20;;;;;;;18.80;13.30;;;;;;;2.89;71.13;100880.98;109263;1254;59669;-73
2024/01/24 09:22:50;;;;;;;17.70;13.30;;;;;;;2.88;70.95;100881.70;109253;1252;71565;-73
2024/01/24 09:25:19;;;;;;;18.90;13.50;;;;;;;2.86;70.88;100877.58;109335;1253;62321;-75
2024/01/24 09:27:45;;;;;;;18.70;14.20;;;;;;;2.85;70.84;100870.69;109220;1253;58549;-77
2024/01/24 09:30:13;;;;;;;19.10;14.50;;;;;;;2.81;70.78;100862.48;109009;1253;64763;-75
2024/01/24 09:32:40;;;;;;;16.60;13.40;;;;;;;2.80;70.72;100858.89;109182;1253;60191;-76
2024/01/24 09:35:08;;;;;;;22.10;14.60;;;;;;;2.81;70.75;100854.52;109203;1252;64903;-70
2024/01/24 09:37:36;;;;;;;20.60;14.70;;;;;;;2.82;70.63;100847.15;109247;1253;61525;-72
2024/01/24 09:40:05;;;;;;;20.40;14.50;;;;;;;2.83;70.63;100847.27;109192;1253;58170;-72
2024/01/24 09:42:32;;;;;;;20.90;14.30;;;;;;;2.83;70.52;100845.02;109140;1253;66606;-71
2024/01/24 09:44:59;;;;;;;21.10;14.80;;;;;;;2.81;70.47;100841.45;109260;1253;59362;-72
2024/01/24 09:47:26;;;;;;;18.20;13.70;;;;;;;2.79;70.44;100838.38;109224;1254;63530;-69
2024/01/24 09:49:53;;;;;;;17.80;13.60;;;;;;;2.78;70.38;100834.77;109250;1253;58440;-75
2024/01/24 09:52:26;;;;;;;17.80;13.90;;;;;;;2.78;70.46;100832.51;109185;1253;58256;-79
2024/01/24 09:54:56;;;;;;;18.10;13.90;;;;;;;2.79;70.48;100830.39;109153;1253;66895;-76
2024/01/24 09:57:23;;;;;;;18.90;13.90;;;;;;;2.81;70.46;100833.96;109170;1253;60195;-75
2024/01/24 09:59:51;;;;;;;21.50;14.90;;;;;;;2.81;70.36;100826.30;109157;1253;72811;-75
2024/01/24 10:02:18;;;;;;;18.80;14.30;;;;;;;2.82;70.33;100826.45;109268;1254;58274;-75
2024/01/24 10:04:45;;;;;;;17.20;13.70;;;;;;;2.81;70.30;100820.91;107426;1253;60456;-73
2024/01/24 10:07:12;;;;;;;18.50;14.00;;;;;;;2.82;70.34;100822.48;106039;1253;64866;-76
2024/01/24 10:09:39;;;;;;;18.00;14.10;;;;;;;2.82;70.36;100820.39;106023;1254;60470;-75
2024/01/24 10:12:09;;;;;;;17.10;13.60;;;;;;;2.84;70.32;100815.95;106391;1257;64501;-78
2024/01/24 10:14:40;;;;;;;18.50;14.00;;;;;;;2.89;70.15;100808.25;105920;1253;60435;-73
2024/01/24 10:17:10;;;;;;;19.30;14.70;;;;;;;2.90;70.13;100804.23;105977;1253;60320;-73
2024/01/24 10:19:37;;;;;;;18.20;14.40;;;;;;;2.87;70.31;100803.98;105877;1255;72732;-76
2024/01/24 10:22:05;;;;;;;18.80;15.40;;;;;;;2.89;70.31;100805.98;105899;1258;60566;-72
2024/01/24 10:24:37;;;;;;;17.70;14.50;;;;;;;2.96;70.11;100801.70;106121;1254;65975;-73
2024/01/24 10:27:04;;;;;;;20.20;15.50;;;;;;;2.97;70.04;100789.99;105958;1255;60529;-76
2024/01/24 10:29:32;;;;;;;19.80;14.80;;;;;;;2.97;70.01;100783.25;105881;1253;60451;-74
2024/01/24 10:31:59;;;;;;;18.60;14.50;;;;;;;2.97;69.99;100780.98;105810;1253;73013;-75
2024/01/24 10:34:28;;;;;;;22.50;16.30;;;;;;;2.98;70.00;100778.86;105794;1253;60461;-75
2024/01/24 10:36:56;;;;;;;23.60;16.30;;;;;;;3.01;70.07;100777.85;105926;1254;65959;-79
2024/01/24 10:39:24;;;;;;;21.30;15.50;;;;;;;2.97;70.20;100776.11;105978;1253;60353;-77
2024/01/24 10:41:53;;;;;;;20.80;15.50;;;;;;;2.90;70.40;100777.10;105930;1260;60371;-78
2024/01/24 10:44:24;;;;;;;26.70;19.40;;;;;;;2.90;70.42;100776.75;105930;1253;74046;-72
2024/01/24 10:46:51;;;;;;;26.80;17.90;;;;;;;2.92;70.35;100770.73;106010;1259;60405;-74
2024/01/24 10:49:18;;;;;;;18.50;13.30;;;;;;;2.94;70.40;100764.73;106062;1253;66411;-76
2024/01/24 10:51:46;;;;;;;15.80;13.80;;;;;;;2.95;70.37;100760.55;106185;1255;60384;-77
2024/01/24 10:54:15;;;;;;;18.20;14.40;;;;;;;2.97;70.36;100754.53;105914;1253;60299;-72
2024/01/24 10:56:43;;;;;;;19.80;14.90;;;;;;;3.00;70.31;100747.95;105843;1257;66581;-70
2024/01/24 10:59:13;;;;;;;17.50;13.90;;;;;;;3.01;70.23;100744.95;105695;1253;66668;-72
2024/01/24 11:01:40;;;;;;;19.30;14.50;;;;;;;3.03;70.26;100741.58;105763;1253;65864;-71
2024/01/24 11:04:07;;;;;;;17.60;12.90;;;;;;;3.04;70.19;100739.77;105721;1258;60471;-70
2024/01/24 11:07:00;;;;;;;17.30;12.40;;;;;;;3.06;70.11;100728.41;105677;1253;60464;-68
2024/01/24 11:09:36;;;;;;;17.80;13.30;;;;;;;3.05;69.94;100717.98;105761;1253;67349;-69
2024/01/24 11:12:04;;;;;;;17.40;12.30;;;;;;;3.06;69.94;100710.66;105817;1253;60539;-73
2024/01/24 11:14:33;;;;;;;17.00;13.10;;;;;;;3.06;69.84;100704.05;105667;1253;66618;-74
2024/01/24 11:17:03;;;;;;;18.30;13.80;;;;;;;3.04;69.84;100689.50;105609;1253;60544;-70
2024/01/24 11:19:30;;;;;;;18.60;13.60;;;;;;;3.03;69.82;100682.27;105715;1260;60432;-71